createdAt,value
2022-09-02T00:00:43.694Z,17.79
2022-09-02T00:03:12.646Z,17.82
2022-09-02T00:05:42.540Z,17.81
2022-09-02T00:08:11.852Z,17.80
2022-09-02T00:10:41.815Z,17.79
2022-09-02T00:13:11.927Z,17.79
2022-09-02T00:15:40.593Z,17.77
2022-09-02T00:18:15.460Z,17.79
2022-09-02T00:20:49.473Z,17.77
2022-09-02T00:23:18.203Z,17.74
2022-09-02T00:25:47.022Z,17.71
2022-09-02T00:28:16.897Z,17.67
2022-09-02T00:30:49.091Z,17.67
2022-09-02T00:33:18.158Z,17.67
2022-09-02T00:35:47.757Z,17.66
2022-09-02T00:38:16.120Z,17.62
2022-09-02T00:40:47.177Z,17.64
2022-09-02T00:43:24.622Z,17.66
2022-09-02T00:45:54.324Z,17.63
2022-09-02T00:48:22.638Z,17.61
2022-09-02T00:50:52.599Z,17.62
2022-09-02T00:53:21.164Z,17.66
2022-09-02T00:55:52.729Z,17.67
2022-09-02T00:58:23.508Z,17.67
2022-09-02T01:00:56.725Z,17.68
2022-09-02T01:03:28.850Z,17.71
2022-09-02T01:06:01.156Z,17.73
2022-09-02T01:08:34.114Z,17.73
2022-09-02T01:11:06.384Z,17.75
2022-09-02T01:13:40.067Z,17.72
2022-09-02T01:16:14.824Z,17.71
2022-09-02T01:18:48.580Z,17.71
2022-09-02T01:21:18.724Z,17.69
2022-09-02T01:23:49.420Z,17.70
2022-09-02T01:26:19.444Z,17.68
2022-09-02T01:28:47.604Z,17.69
2022-09-02T01:31:15.805Z,17.69
2022-09-02T01:33:44.141Z,17.69
2022-09-02T01:36:14.004Z,17.67
2022-09-02T01:38:42.244Z,17.67
2022-09-02T01:41:11.718Z,17.67
2022-09-02T01:43:40.003Z,17.64
2022-09-02T01:46:08.069Z,17.64
2022-09-02T01:48:37.327Z,17.67
2022-09-02T01:51:06.016Z,17.66
2022-09-02T01:53:35.103Z,17.63
2022-09-02T01:56:03.730Z,17.59
2022-09-02T01:58:36.328Z,17.62
2022-09-02T02:01:04.916Z,17.61
2022-09-02T02:03:33.990Z,17.59
2022-09-02T02:06:02.167Z,17.58
2022-09-02T02:08:30.897Z,17.59
2022-09-02T02:11:01.200Z,17.58
2022-09-02T02:13:30.991Z,17.58
2022-09-02T02:16:00.497Z,17.56
2022-09-02T02:18:29.855Z,17.54
2022-09-02T02:20:57.962Z,17.57
2022-09-02T02:23:26.495Z,17.53
2022-09-02T02:25:54.615Z,17.50
2022-09-02T02:28:22.758Z,17.49
2022-09-02T02:30:51.123Z,17.47
2022-09-02T02:33:20.684Z,17.45
2022-09-02T02:35:53.334Z,17.41
2022-09-02T02:38:24.735Z,17.35
2022-09-02T02:40:56.596Z,17.40
2022-09-02T02:43:26.650Z,17.38
2022-09-02T02:45:55.209Z,17.33
2022-09-02T02:48:24.749Z,17.31
2022-09-02T02:50:52.864Z,17.30
2022-09-02T02:53:21.021Z,17.26
2022-09-02T02:55:49.931Z,17.25
2022-09-02T02:58:19.831Z,17.25
2022-09-02T03:00:50.390Z,17.23
2022-09-02T03:03:22.555Z,17.22
2022-09-02T03:05:56.149Z,17.21
2022-09-02T03:08:25.875Z,17.20
2022-09-02T03:10:56.358Z,17.19
2022-09-02T03:13:29.620Z,17.12
2022-09-02T03:16:02.193Z,17.11
2022-09-02T03:18:30.449Z,17.06
2022-09-02T03:21:01.357Z,17.04
2022-09-02T03:23:29.753Z,17.01
2022-09-02T03:25:57.924Z,16.95
2022-09-02T03:28:33.685Z,16.95
2022-09-02T03:31:03.832Z,16.88
2022-09-02T03:33:32.515Z,16.87
2022-09-02T03:36:01.965Z,16.87
2022-09-02T03:38:30.146Z,16.83
2022-09-02T03:40:58.329Z,16.80
2022-09-02T03:43:26.602Z,16.80
2022-09-02T03:45:54.931Z,16.79
2022-09-02T03:48:23.711Z,16.74
2022-09-02T03:50:51.861Z,16.71
2022-09-02T03:53:23.776Z,16.69
2022-09-02T03:55:58.063Z,16.68
2022-09-02T03:58:29.044Z,16.67
2022-09-02T04:00:59.623Z,16.64
2022-09-02T04:03:28.396Z,16.61
2022-09-02T04:05:57.054Z,16.60
2022-09-02T04:08:29.369Z,16.61
2022-09-02T04:11:05.630Z,16.61
2022-09-02T04:13:35.015Z,16.62
2022-09-02T04:16:08.102Z,16.61
2022-09-02T04:18:39.721Z,16.59
2022-09-02T04:21:08.171Z,16.62
2022-09-02T04:23:39.697Z,16.62
2022-09-02T04:26:10.584Z,16.62
2022-09-02T04:28:39.099Z,16.65
2022-09-02T04:31:08.748Z,16.65
2022-09-02T04:33:38.773Z,16.67
2022-09-02T04:36:10.331Z,16.65
2022-09-02T04:38:42.944Z,16.68
2022-09-02T04:41:14.019Z,16.66
2022-09-02T04:43:43.084Z,16.68
2022-09-02T04:46:14.172Z,16.67
2022-09-02T04:48:45.791Z,16.70
2022-09-02T04:51:16.363Z,16.68
2022-09-02T04:53:49.222Z,16.70
2022-09-02T04:56:21.503Z,16.72
2022-09-02T04:58:51.710Z,16.77
2022-09-02T05:01:24.413Z,16.76
2022-09-02T05:03:55.311Z,16.79
2022-09-02T05:06:29.308Z,16.81
2022-09-02T05:09:02.407Z,16.79
2022-09-02T05:11:34.212Z,16.81
2022-09-02T05:14:04.867Z,16.84
2022-09-02T05:16:37.741Z,16.88
2022-09-02T05:19:12.655Z,16.90
2022-09-02T05:21:47.097Z,16.92
2022-09-02T05:24:39.318Z,16.94
2022-09-02T05:27:10.728Z,16.95
2022-09-02T05:29:40.624Z,16.94
2022-09-02T05:32:11.778Z,16.98
2022-09-02T05:34:41.168Z,17.03
2022-09-02T05:37:09.541Z,17.09
2022-09-02T05:39:39.681Z,17.11
2022-09-02T05:42:09.591Z,17.12
2022-09-02T05:44:39.088Z,17.15
2022-09-02T05:47:10.153Z,17.17
2022-09-02T05:49:39.630Z,17.20
2022-09-02T05:52:14.548Z,17.26
2022-09-02T05:54:49.423Z,17.31
2022-09-02T05:57:20.253Z,17.25
2022-09-02T06:00:07.801Z,17.31
2022-09-02T06:02:42.265Z,17.37
2022-09-02T06:05:16.488Z,17.38
2022-09-02T06:07:49.681Z,17.50
2022-09-02T06:10:23.039Z,17.44
2022-09-02T06:12:51.923Z,17.46
2022-09-02T06:15:23.066Z,17.50
2022-09-02T06:17:51.645Z,17.51
2022-09-02T06:20:20.018Z,17.73
2022-09-02T06:22:49.593Z,17.75
2022-09-02T06:25:21.044Z,17.79
2022-09-02T06:27:51.678Z,17.82
2022-09-02T06:30:19.991Z,17.97
2022-09-02T06:32:50.558Z,18.07
2022-09-02T06:35:19.908Z,17.99
2022-09-02T06:37:48.380Z,17.96
2022-09-02T06:40:16.807Z,17.91
2022-09-02T06:42:45.650Z,18.01
2022-09-02T06:45:29.460Z,18.13
2022-09-02T06:48:00.502Z,18.04
2022-09-02T06:50:29.127Z,18.10
2022-09-02T06:52:57.276Z,18.14
2022-09-02T06:55:25.398Z,18.19
2022-09-02T06:57:53.889Z,18.00
2022-09-02T07:00:22.505Z,18.06
2022-09-02T07:03:12.111Z,18.19
2022-09-02T07:05:40.448Z,18.26
2022-09-02T07:08:09.531Z,18.34
2022-09-02T07:10:39.542Z,18.35
2022-09-02T07:13:10.369Z,18.54
2022-09-02T07:15:38.733Z,18.71
2022-09-02T07:18:12.637Z,18.59
2022-09-02T07:20:41.644Z,18.41
2022-09-02T07:23:09.985Z,18.45
2022-09-02T07:25:41.229Z,18.43
2022-09-02T07:28:12.254Z,18.34
2022-09-02T07:30:43.293Z,18.38
2022-09-02T07:33:16.942Z,18.44
2022-09-02T07:35:47.032Z,18.50
2022-09-02T07:38:17.796Z,18.63
2022-09-02T07:40:49.094Z,18.51
2022-09-02T07:43:18.275Z,18.39
2022-09-02T07:45:47.127Z,18.49
2022-09-02T07:48:16.837Z,18.53
2022-09-02T07:50:47.490Z,18.46
2022-09-02T07:53:18.142Z,18.60
2022-09-02T07:55:48.221Z,18.56
2022-09-02T07:58:18.703Z,18.69
2022-09-02T08:00:48.601Z,18.70
2022-09-02T08:03:20.360Z,18.63
2022-09-02T08:05:55.582Z,18.70
2022-09-02T08:08:26.438Z,18.77
2022-09-02T08:10:55.418Z,18.81
2022-09-02T08:13:27.059Z,18.85
2022-09-02T08:15:56.393Z,18.88
2022-09-02T08:18:26.160Z,18.89
2022-09-02T08:20:54.251Z,18.72
2022-09-02T08:23:38.092Z,18.88
2022-09-02T08:26:07.394Z,18.92
2022-09-02T08:28:35.855Z,18.90
2022-09-02T08:31:07.457Z,18.79
2022-09-02T08:33:38.694Z,18.75
2022-09-02T08:36:08.934Z,18.84
2022-09-02T08:38:37.870Z,18.89
2022-09-02T08:41:13.865Z,18.99
2022-09-02T08:43:45.334Z,19.02
2022-09-02T08:46:18.171Z,19.06
2022-09-02T08:48:52.950Z,19.11
2022-09-02T08:51:30.366Z,19.16
2022-09-02T08:54:09.070Z,19.35
2022-09-02T08:56:37.223Z,19.34
2022-09-02T08:59:07.179Z,19.34
2022-09-02T09:01:46.606Z,19.17
2022-09-02T09:04:38.743Z,19.02
2022-09-02T09:07:16.803Z,19.20
2022-09-02T09:10:04.035Z,19.33
2022-09-02T09:12:49.053Z,19.35
2022-09-02T09:15:25.845Z,19.53
2022-09-02T09:17:58.664Z,19.55
2022-09-02T09:20:31.268Z,19.64
2022-09-02T09:23:01.402Z,19.73
2022-09-02T09:25:31.098Z,19.62
2022-09-02T09:27:59.662Z,19.67
2022-09-02T09:30:28.301Z,19.70
2022-09-02T09:32:59.915Z,19.91
2022-09-02T09:35:47.740Z,19.85
2022-09-02T09:38:15.908Z,19.99
2022-09-02T09:40:44.268Z,20.24
2022-09-02T09:43:16.355Z,20.39
2022-09-02T09:45:46.033Z,20.50
2022-09-02T09:48:23.031Z,20.42
2022-09-02T09:51:13.025Z,20.37
2022-09-02T09:53:41.245Z,20.73
2022-09-02T09:56:28.677Z,20.57
2022-09-02T09:58:56.918Z,20.74
2022-09-02T10:01:27.869Z,20.99
2022-09-02T10:03:59.081Z,21.26
2022-09-02T10:06:40.326Z,21.41
2022-09-02T10:09:30.822Z,21.25
2022-09-02T10:12:00.934Z,21.04
2022-09-02T10:14:35.342Z,21.22
2022-09-02T10:17:20.071Z,21.47
2022-09-02T10:19:55.388Z,21.58
2022-09-02T10:23:00.101Z,21.92
2022-09-02T10:25:41.091Z,22.33
2022-09-02T10:28:20.024Z,22.41
2022-09-02T10:30:56.569Z,22.06
2022-09-02T10:33:37.586Z,21.87
2022-09-02T10:36:19.786Z,21.85
2022-09-02T10:38:51.916Z,22.03
2022-09-02T10:44:36.794Z,21.89
2022-09-02T10:47:11.610Z,21.83
2022-09-02T10:49:54.847Z,22.15
2022-09-02T10:52:38.577Z,22.02
2022-09-02T10:55:18.960Z,22.13
2022-09-02T10:57:50.280Z,22.16
2022-09-02T11:00:20.498Z,22.25
2022-09-02T11:02:57.599Z,22.05
2022-09-02T11:05:29.315Z,22.12
2022-09-02T11:08:02.490Z,22.10
2022-09-02T11:10:36.097Z,22.30
2022-09-02T11:13:06.440Z,22.36
2022-09-02T11:15:45.967Z,22.34
2022-09-02T11:18:23.987Z,22.24
2022-09-02T11:21:02.080Z,22.26
2022-09-02T11:23:38.830Z,22.13
2022-09-02T11:26:12.968Z,22.43
2022-09-02T11:28:47.747Z,22.72
2022-09-02T11:31:22.911Z,22.46
2022-09-02T11:33:57.736Z,22.27
2022-09-02T11:36:30.953Z,22.38
2022-09-02T11:39:06.832Z,22.77
2022-09-02T11:42:00.734Z,23.16
2022-09-02T11:45:18.243Z,23.75
2022-09-02T11:48:24.735Z,23.82
2022-09-02T11:51:06.260Z,23.87
2022-09-02T11:53:39.723Z,23.41
2022-09-02T11:56:16.196Z,23.37
2022-09-02T11:58:48.074Z,23.60
2022-09-02T12:01:30.147Z,23.57
2022-09-02T12:07:29.728Z,23.47
2022-09-02T12:10:02.859Z,23.85
2022-09-02T12:13:08.121Z,23.91
2022-09-02T12:15:43.433Z,24.49
2022-09-02T12:18:32.115Z,24.41
2022-09-02T12:21:18.261Z,24.52
2022-09-02T12:24:11.655Z,24.60
2022-09-02T12:27:22.771Z,24.63
2022-09-02T12:29:52.154Z,24.88
2022-09-02T12:33:13.525Z,24.98
2022-09-02T12:35:57.732Z,25.16
2022-09-02T12:38:29.032Z,25.02
2022-09-02T12:41:13.300Z,24.93
2022-09-02T12:43:53.563Z,25.31
2022-09-02T12:46:29.601Z,25.45
2022-09-02T12:49:05.552Z,25.39
2022-09-02T12:51:54.957Z,25.76
2022-09-02T12:54:37.043Z,26.31
2022-09-02T12:57:05.435Z,26.46
2022-09-02T12:59:36.555Z,26.48
2022-09-02T13:02:30.489Z,26.42
2022-09-02T13:05:16.147Z,26.54
2022-09-02T13:08:15.093Z,26.61
2022-09-02T13:11:38.692Z,26.65
2022-09-02T13:14:32.053Z,27.13
2022-09-02T13:17:35.455Z,27.44
2022-09-02T13:20:42.139Z,27.22
2022-09-02T13:23:41.173Z,26.73
2022-09-02T13:26:48.941Z,26.78
2022-09-02T13:30:03.174Z,26.19
2022-09-02T13:32:33.033Z,26.26
2022-09-02T13:35:05.209Z,26.19
2022-09-02T13:37:36.583Z,26.21
2022-09-02T13:40:17.809Z,26.32
2022-09-02T13:42:49.713Z,26.38
2022-09-02T13:45:19.774Z,26.30
2022-09-02T13:47:50.688Z,26.08
2022-09-02T13:50:22.376Z,26.08
2022-09-02T13:53:45.213Z,26.22
2022-09-02T13:55:50.776Z,26.76
2022-09-02T13:58:33.060Z,27.32
2022-09-02T14:01:21.855Z,27.76
2022-09-02T14:03:51.942Z,28.31
2022-09-02T14:06:23.751Z,27.73
2022-09-02T14:08:54.276Z,27.56
2022-09-02T14:11:24.463Z,26.73
2022-09-02T14:13:53.246Z,26.35
2022-09-02T14:16:34.066Z,25.56
2022-09-02T14:19:11.666Z,25.00
2022-09-02T14:21:47.053Z,24.98
2022-09-02T14:24:17.167Z,24.23
2022-09-02T14:26:49.120Z,24.00
2022-09-02T14:29:18.891Z,24.12
2022-09-02T14:31:48.294Z,24.56
2022-09-02T14:34:39.537Z,24.85
2022-09-02T14:37:21.873Z,25.79
2022-09-02T14:39:55.174Z,25.09
2022-09-02T14:42:28.405Z,25.35
2022-09-02T14:44:59.482Z,25.43
2022-09-02T14:47:28.752Z,24.86
2022-09-02T14:49:57.493Z,24.93
2022-09-02T14:52:28.999Z,24.77
2022-09-02T14:54:58.719Z,24.85
2022-09-02T14:57:33.160Z,25.08
2022-09-02T15:00:06.849Z,25.30
2022-09-02T15:02:35.881Z,25.50
2022-09-02T15:05:06.531Z,25.36
2022-09-02T15:07:35.095Z,25.31
2022-09-02T15:10:04.253Z,25.20
2022-09-02T15:12:35.785Z,25.03
2022-09-02T15:15:04.012Z,24.46
2022-09-02T15:17:32.356Z,24.33
2022-09-02T15:20:00.566Z,24.45
2022-09-02T15:22:28.731Z,24.02
2022-09-02T15:24:57.954Z,24.01
2022-09-02T15:27:26.111Z,24.06
2022-09-02T15:29:55.796Z,24.08
2022-09-02T15:32:24.159Z,24.05
2022-09-02T15:34:52.347Z,23.65
2022-09-02T15:37:20.639Z,23.66
2022-09-02T15:39:49.601Z,23.71
2022-09-02T15:42:18.589Z,24.45
2022-09-02T15:44:46.810Z,24.62
2022-09-02T15:47:16.496Z,24.51
2022-09-02T15:49:44.729Z,24.36
2022-09-02T15:52:12.838Z,23.93
2022-09-02T15:54:41.042Z,23.77
2022-09-02T15:57:09.212Z,23.51
2022-09-02T15:59:37.512Z,23.11
2022-09-02T16:02:06.191Z,22.57
2022-09-02T16:04:36.904Z,21.83
2022-09-02T16:07:05.374Z,22.08
2022-09-02T16:09:33.502Z,21.99
2022-09-02T16:12:01.837Z,22.01
2022-09-02T16:14:30.007Z,22.04
2022-09-02T16:16:58.509Z,21.71
2022-09-02T16:19:30.178Z,21.71
2022-09-02T16:22:02.210Z,21.47
2022-09-02T16:24:30.359Z,21.39
2022-09-02T16:26:58.684Z,21.45
2022-09-02T16:29:28.097Z,21.45
2022-09-02T16:34:46.833Z,21.48
2022-09-02T16:37:17.610Z,21.54
2022-09-02T16:39:45.980Z,21.25
2022-09-02T16:42:14.252Z,21.15
2022-09-02T16:44:42.628Z,21.07
2022-09-02T16:47:12.397Z,21.13
2022-09-02T16:49:42.299Z,21.00
2022-09-02T16:52:10.822Z,21.02
2022-09-02T16:54:41.372Z,21.03
2022-09-02T16:57:09.825Z,21.07
2022-09-02T16:59:38.156Z,21.00
2022-09-02T17:02:06.861Z,20.97
2022-09-02T17:04:35.105Z,20.79
2022-09-02T17:07:03.307Z,20.89
2022-09-02T17:09:31.453Z,20.85
2022-09-02T17:12:01.166Z,20.63
2022-09-02T17:14:30.409Z,20.46
2022-09-02T17:16:58.629Z,20.56
2022-09-02T17:19:31.548Z,20.42
2022-09-02T17:22:00.613Z,20.47
2022-09-02T17:24:30.871Z,20.26
2022-09-02T17:27:02.140Z,20.15
2022-09-02T17:29:48.436Z,20.36
2022-09-02T17:32:17.603Z,20.33
2022-09-02T17:34:46.139Z,20.26
2022-09-02T17:37:17.797Z,20.36
2022-09-02T17:39:46.628Z,20.45
2022-09-02T17:42:15.681Z,20.49
2022-09-02T17:44:44.085Z,20.30
2022-09-02T17:47:14.514Z,20.35
2022-09-02T17:49:44.667Z,20.17
2022-09-02T17:52:14.856Z,20.05
2022-09-02T17:54:44.904Z,20.12
2022-09-02T17:57:29.304Z,20.17
2022-09-02T18:00:10.658Z,20.01
2022-09-02T18:03:03.646Z,19.95
2022-09-02T18:05:37.266Z,20.01
2022-09-02T18:08:10.194Z,20.02
2022-09-02T18:10:43.205Z,20.05
2022-09-02T18:13:15.001Z,20.09
2022-09-02T18:15:53.536Z,20.03
2022-09-02T18:18:21.880Z,19.87
2022-09-02T18:20:57.446Z,19.76
2022-09-02T18:23:51.992Z,19.80
2022-09-02T18:26:30.378Z,19.90
2022-09-02T18:29:14.750Z,19.81
2022-09-02T18:31:54.817Z,19.86
2022-09-02T18:34:39.525Z,19.81
2022-09-02T18:37:13.649Z,19.77
2022-09-02T18:40:03.421Z,19.73
2022-09-02T18:42:46.071Z,19.73
2022-09-02T18:45:22.195Z,19.68
2022-09-02T18:47:55.145Z,19.46
2022-09-02T18:50:47.690Z,19.39
2022-09-02T18:53:19.753Z,19.57
2022-09-02T18:55:49.214Z,19.65
2022-09-02T18:58:34.416Z,19.62
2022-09-02T19:01:08.157Z,19.66
2022-09-02T19:03:37.881Z,19.65
2022-09-02T19:06:11.246Z,19.67
2022-09-02T19:08:38.809Z,19.58
2022-09-02T19:11:12.932Z,19.52
2022-09-02T19:13:47.537Z,19.52
2022-09-02T19:16:20.384Z,19.49
2022-09-02T19:18:49.336Z,19.48
2022-09-02T19:21:21.154Z,19.49
2022-09-02T19:23:50.138Z,19.50
2022-09-02T19:26:19.013Z,19.36
2022-09-02T19:28:48.533Z,19.30
2022-09-02T19:31:21.877Z,19.28
2022-09-02T19:33:52.880Z,19.26
2022-09-02T19:36:26.256Z,19.18
2022-09-02T19:38:56.615Z,19.11
2022-09-02T19:41:27.753Z,19.05
2022-09-02T19:43:56.328Z,19.00
2022-09-02T19:47:20.661Z,18.90
2022-09-02T19:49:15.998Z,18.84
2022-09-02T19:51:44.670Z,18.85
2022-09-02T19:54:14.903Z,18.87
2022-09-02T19:56:43.409Z,18.78
2022-09-02T19:59:12.160Z,18.69
2022-09-02T20:01:41.904Z,18.67
2022-09-02T20:04:11.664Z,18.59
2022-09-02T20:06:39.856Z,18.49
2022-09-02T20:09:08.020Z,18.43
2022-09-02T20:11:37.231Z,18.40
2022-09-02T20:14:09.383Z,18.40
2022-09-02T20:16:37.720Z,18.38
2022-09-02T20:19:07.659Z,18.27
2022-09-02T20:21:43.315Z,18.24
2022-09-02T20:24:16.578Z,18.15
2022-09-02T20:26:58.647Z,18.11
2022-09-02T20:29:37.955Z,18.07
2022-09-02T20:32:15.523Z,17.99
2022-09-02T20:34:57.640Z,17.99
2022-09-02T20:37:40.627Z,17.92
2022-09-02T20:40:34.827Z,17.86
2022-09-02T20:43:17.084Z,17.77
2022-09-02T20:45:53.096Z,17.76
2022-09-02T20:48:38.179Z,17.76
2022-09-02T20:51:13.014Z,17.78
2022-09-02T20:54:10.888Z,17.68
2022-09-02T20:56:48.415Z,17.59
2022-09-02T20:59:26.856Z,17.50
2022-09-02T21:01:58.787Z,17.57
2022-09-02T21:04:36.061Z,17.48
2022-09-02T21:07:12.187Z,17.47
2022-09-02T21:09:46.689Z,17.50
2022-09-02T21:12:24.350Z,17.42
2022-09-02T21:15:00.211Z,17.43
2022-09-02T21:17:36.386Z,17.45
2022-09-02T21:20:11.972Z,17.39
2022-09-02T21:22:47.386Z,17.43
2022-09-02T21:25:22.324Z,17.39
2022-09-02T21:27:55.126Z,17.35
2022-09-02T21:30:27.455Z,17.35
2022-09-02T21:32:58.700Z,17.30
2022-09-02T21:35:32.791Z,17.26
2022-09-02T21:38:05.315Z,17.20
2022-09-02T21:40:45.933Z,17.06
2022-09-02T21:43:27.568Z,16.94
2022-09-02T21:46:05.635Z,16.82
2022-09-02T21:48:41.530Z,16.72
2022-09-02T21:51:20.480Z,16.61
2022-09-02T21:54:04.585Z,16.59
2022-09-02T21:56:49.620Z,16.56
2022-09-02T21:59:40.039Z,16.52
2022-09-02T22:02:12.743Z,16.53
2022-09-02T22:04:53.624Z,16.51
2022-09-02T22:07:27.511Z,16.51
2022-09-02T22:10:06.810Z,16.42
2022-09-02T22:12:39.890Z,16.37
2022-09-02T22:15:15.830Z,16.30
2022-09-02T22:17:51.632Z,16.18
2022-09-02T22:20:24.042Z,16.15
2022-09-02T22:22:55.723Z,16.13
2022-09-02T22:25:26.840Z,16.15
2022-09-02T22:28:01.732Z,16.17
2022-09-02T22:30:32.663Z,16.14
2022-09-02T22:33:08.019Z,16.11
2022-09-02T22:35:42.999Z,16.10
2022-09-02T22:38:21.955Z,15.96
2022-09-02T22:40:58.124Z,15.95
2022-09-02T22:43:41.498Z,15.90
2022-09-02T22:46:34.753Z,15.88
2022-09-02T22:49:27.415Z,15.81
2022-09-02T22:52:21.856Z,15.72
2022-09-02T22:54:52.333Z,15.69
2022-09-02T22:57:33.880Z,15.69
2022-09-02T23:00:07.218Z,15.75
2022-09-02T23:02:38.390Z,15.71
2022-09-02T23:05:36.565Z,15.74
2022-09-02T23:08:06.310Z,15.70
2022-09-02T23:10:39.882Z,15.71
2022-09-02T23:13:14.860Z,15.64
2022-09-02T23:15:55.106Z,15.60
2022-09-02T23:18:33.729Z,15.63
2022-09-02T23:21:10.728Z,15.64
2022-09-02T23:23:49.735Z,15.62
2022-09-02T23:26:33.222Z,15.59
2022-09-02T23:29:15.936Z,15.54
2022-09-02T23:32:23.580Z,15.51
2022-09-02T23:35:07.303Z,15.54
2022-09-02T23:37:49.551Z,15.54
2022-09-02T23:40:24.048Z,15.54
2022-09-02T23:42:52.451Z,15.49
2022-09-02T23:45:24.960Z,15.48
2022-09-02T23:48:20.476Z,15.44
2022-09-02T23:50:59.279Z,15.48
2022-09-02T23:53:34.646Z,15.46
2022-09-02T23:56:13.301Z,15.42
2022-09-02T23:58:59.785Z,15.36
